Time;durP1;ratioP1;P1;durP2;ratioP2;P2;SDS_P1;SDS_P2;PMS_P1;PMS_P2;Temp;Humidity;BMP_temperature;BMP_pressure;BME280_temperature;BME280_humidity;BME280_pressure;Samples;Min_cycle;Max_cycle;Signal;HPM_P1;HPM_P2
2022/08/11 00:01:26;;;;;;;4.53;4.23;;;23.90;49.50;;;;;;5074622;28;20518;-69
2022/08/11 00:04:01;;;;;;;7.57;4.50;;;24.00;49.50;;;;;;5077783;28;20479;-69
2022/08/11 00:06:35;;;;;;;5.10;4.13;;;23.90;49.50;;;;;;5072884;28;20458;-70
2022/08/11 00:09:04;;;;;;;5.13;4.60;;;23.80;49.70;;;;;;5067898;28;20448;-69
2022/08/11 00:11:36;;;;;;;5.27;4.47;;;23.80;49.70;;;;;;5060969;28;20489;-69
2022/08/11 00:14:03;;;;;;;4.57;4.27;;;23.60;49.80;;;;;;5076777;28;20518;-69
2022/08/11 00:16:30;;;;;;;4.67;4.37;;;23.60;49.80;;;;;;5085226;28;20440;-69
2022/08/11 00:18:57;;;;;;;4.90;4.50;;;23.60;49.80;;;;;;5057639;28;20448;-69
2022/08/11 00:21:26;;;;;;;5.17;4.77;;;23.60;50.00;;;;;;5071102;28;20467;-70
2022/08/11 00:23:56;;;;;;;4.70;4.40;;;23.60;49.80;;;;;;5092155;28;21109;-69
2022/08/11 00:26:23;;;;;;;5.10;4.60;;;23.60;49.80;;;;;;5080633;28;20463;-69
2022/08/11 00:28:51;;;;;;;5.87;5.10;;;23.60;49.80;;;;;;5056603;28;20449;-69
2022/08/11 00:31:30;;;;;;;4.60;4.20;;;23.60;49.70;;;;;;5072913;28;20456;-69
2022/08/11 00:33:58;;;;;;;5.03;4.43;;;23.60;49.60;;;;;;5069872;28;20454;-69
2022/08/11 00:36:38;;;;;;;4.90;4.50;;;23.50;49.90;;;;;;5069972;28;20664;-69
2022/08/11 00:39:06;;;;;;;4.63;4.33;;;23.40;49.80;;;;;;5071209;28;20443;-69
2022/08/11 00:42:02;;;;;;;4.47;4.17;;;23.20;50.00;;;;;;5079336;28;20456;-69
2022/08/11 00:44:40;;;;;;;4.80;4.47;;;23.30;50.00;;;;;;5044126;28;20462;-70
2022/08/11 00:47:09;;;;;;;4.70;4.30;;;23.40;49.90;;;;;;5070412;27;20448;-69
2022/08/11 00:50:09;;;;;;;6.93;6.43;;;23.30;50.40;;;;;;5067450;28;20544;-69
2022/08/11 00:52:37;;;;;;;4.70;4.40;;;23.20;49.90;;;;;;5081814;28;20462;-70
2022/08/11 00:55:23;;;;;;;7.40;4.80;;;23.20;50.00;;;;;;5073661;28;20530;-69
2022/08/11 00:58:26;;;;;;;8.83;4.87;;;23.30;50.00;;;;;;5078108;28;20452;-69
2022/08/11 01:00:58;;;;;;;5.17;4.67;;;23.20;50.00;;;;;;5055825;28;20451;-70
2022/08/11 01:03:44;;;;;;;4.63;4.30;;;23.10;50.00;;;;;;5069390;28;20464;-70
2022/08/11 01:06:50;;;;;;;4.60;4.30;;;23.10;50.10;;;;;;5071839;28;21003;-69
2022/08/11 01:09:31;;;;;;;6.17;4.97;;;23.00;50.20;;;;;;5076233;28;20456;-69
2022/08/11 01:12:25;;;;;;;4.87;4.50;;;23.00;50.30;;;;;;5067106;28;20464;-69
2022/08/11 01:15:28;;;;;;;5.17;4.77;;;22.90;50.20;;;;;;5074081;27;20439;-69
2022/08/11 01:18:25;;;;;;;4.97;4.57;;;23.00;50.60;;;;;;5062354;28;20449;-70
2022/08/11 01:21:12;;;;;;;9.63;4.50;;;22.90;50.20;;;;;;5065269;28;20460;-70
2022/08/11 01:23:57;;;;;;;4.67;4.20;;;22.90;50.20;;;;;;5080104;28;20484;-69
2022/08/11 01:26:41;;;;;;;5.10;4.60;;;22.80;50.30;;;;;;5078451;28;20449;-70
2022/08/11 01:29:30;;;;;;;6.03;5.33;;;22.80;50.30;;;;;;5068742;28;20568;-69
2022/08/11 01:32:28;;;;;;;4.33;3.97;;;22.80;50.20;;;;;;5057618;28;20450;-70
2022/08/11 01:35:30;;;;;;;5.50;4.80;;;22.80;50.20;;;;;;5091419;27;20508;-69
2022/08/11 01:38:24;;;;;;;5.60;5.20;;;22.70;50.40;;;;;;5064721;28;20437;-69
2022/08/11 01:44:36;;;;;;;4.90;4.50;;;22.60;50.50;;;;;;5078939;28;20975;-70
2022/08/11 01:44:36;;;;;;;5.00;4.50;;;22.60;50.40;;;;;;5072337;28;20460;-69
2022/08/11 01:47:49;;;;;;;4.90;4.50;;;22.60;50.50;;;;;;5058733;28;20511;-69
2022/08/11 01:50:13;;;;;;;5.10;4.40;;;22.60;50.40;;;;;;5084632;28;20448;-70
2022/08/11 01:53:00;;;;;;;5.67;5.07;;;22.60;50.40;;;;;;5077004;28;20465;-70
2022/08/11 01:55:36;;;;;;;4.40;4.10;;;22.60;50.40;;;;;;5072427;28;20449;-70
2022/08/11 01:58:15;;;;;;;5.20;4.70;;;22.60;50.40;;;;;;5055683;28;20446;-69
2022/08/11 02:01:01;;;;;;;5.37;4.50;;;22.50;50.40;;;;;;5052827;28;20490;-69
2022/08/11 02:03:38;;;;;;;5.83;5.00;;;22.50;50.30;;;;;;5052782;28;20530;-70
2022/08/11 02:06:53;;;;;;;5.60;5.17;;;22.50;50.40;;;;;;5076280;28;20964;-69
2022/08/11 02:09:08;;;;;;;6.70;4.77;;;22.50;50.50;;;;;;5063104;28;20454;-69
2022/08/11 02:11:36;;;;;;;4.77;4.43;;;22.40;50.50;;;;;;5084871;28;21028;-70
2022/08/11 02:14:27;;;;;;;4.80;4.40;;;22.50;50.60;;;;;;5085520;27;20453;-69
2022/08/11 02:17:16;;;;;;;7.37;4.40;;;22.40;50.50;;;;;;5069084;28;20456;-68
2022/08/11 02:23:38;;;;;;;5.00;4.67;;;22.40;50.50;;;;;;5058971;28;20465;-69
2022/08/11 02:26:31;;;;;;;4.90;4.50;;;22.30;50.60;;;;;;5096037;27;20500;-69
2022/08/11 02:29:12;;;;;;;5.13;4.70;;;22.30;50.60;;;;;;5093780;27;20437;-69
2022/08/11 02:34:49;;;;;;;5.43;4.77;;;22.30;50.70;;;;;;5089891;27;20519;-70
2022/08/11 02:37:26;;;;;;;7.53;4.60;;;22.20;50.70;;;;;;5075993;28;20459;-68
2022/08/11 02:39:57;;;;;;;5.43;4.50;;;22.20;50.80;;;;;;5075943;28;20446;-69
2022/08/11 02:42:26;;;;;;;5.00;4.60;;;22.20;50.70;;;;;;5071155;28;20453;-70
2022/08/11 02:45:15;;;;;;;4.73;4.43;;;22.20;50.70;;;;;;5074897;28;20472;-69
2022/08/11 02:51:03;;;;;;;4.83;4.43;;;21.90;51.00;;;;;;5063945;28;20445;-69
2022/08/11 02:53:58;;;;;;;5.97;5.37;;;21.90;51.20;;;;;;5086052;27;20467;-68
2022/08/11 02:56:51;;;;;;;4.53;4.20;;;21.80;51.00;;;;;;5065286;28;20521;-69
2022/08/11 02:59:50;;;;;;;5.27;4.87;;;21.90;51.10;;;;;;5055891;28;20879;-69
2022/08/11 03:02:31;;;;;;;4.33;4.03;;;21.90;51.10;;;;;;5061209;28;20457;-69
2022/08/11 03:05:19;;;;;;;4.20;3.90;;;21.80;51.10;;;;;;5081414;28;20532;-70
2022/08/11 03:08:06;;;;;;;5.73;4.33;;;21.80;51.10;;;;;;5052194;28;20896;-70
2022/08/11 03:17:28;;;;;;;4.70;4.30;;;21.70;51.00;;;;;;5067430;28;20453;-68
2022/08/11 03:20:21;;;;;;;4.60;4.30;;;21.60;51.10;;;;;;5067238;28;20608;-69
2022/08/11 03:23:03;;;;;;;6.43;4.87;;;21.60;51.30;;;;;;5065695;28;20511;-70
2022/08/11 03:25:30;;;;;;;7.30;5.47;;;21.50;51.50;;;;;;5062886;28;20553;-70
2022/08/11 03:28:19;;;;;;;6.17;5.17;;;21.50;51.40;;;;;;5068445;28;20449;-69
2022/08/11 03:31:10;;;;;;;5.00;4.50;;;21.50;51.40;;;;;;5068321;28;20521;-70
2022/08/11 03:34:01;;;;;;;5.73;5.33;;;21.40;51.30;;;;;;5060819;28;20457;-69
2022/08/11 03:36:49;;;;;;;8.97;5.00;;;21.40;51.30;;;;;;5063727;28;20458;-69
2022/08/11 03:39:42;;;;;;;4.40;4.10;;;21.40;51.30;;;;;;5065060;28;20502;-69
2022/08/11 03:42:10;;;;;;;4.80;4.50;;;21.40;51.30;;;;;;5071436;28;20972;-69
2022/08/11 03:45:11;;;;;;;4.57;4.23;;;21.40;51.40;;;;;;5060042;28;20476;-70
2022/08/11 03:47:55;;;;;;;5.27;4.77;;;21.40;51.40;;;;;;5062576;28;20901;-70
2022/08/11 03:51:10;;;;;;;4.73;4.30;;;21.40;51.30;;;;;;5068802;28;20453;-69
2022/08/11 03:54:00;;;;;;;7.00;4.73;;;21.20;51.60;;;;;;5034963;28;20442;-67
2022/08/11 03:56:26;;;;;;;5.70;4.37;;;21.20;51.60;;;;;;5065348;28;20447;-69
2022/08/11 03:59:16;;;;;;;5.10;4.60;;;21.20;51.50;;;;;;5055092;28;20460;-70
2022/08/11 04:02:19;;;;;;;4.93;4.53;;;21.20;51.70;;;;;;5065939;28;20246;-68
2022/08/11 04:05:10;;;;;;;7.90;4.63;;;21.10;51.50;;;;;;5069005;28;20471;-68
2022/08/11 04:08:00;;;;;;;4.60;4.20;;;21.10;51.60;;;;;;5067092;28;20481;-69
2022/08/11 04:10:47;;;;;;;7.07;5.20;;;21.10;51.70;;;;;;5075054;28;20509;-70
2022/08/11 04:13:47;;;;;;;5.17;4.77;;;21.10;51.60;;;;;;5059363;28;20461;-69
2022/08/11 04:16:40;;;;;;;5.23;4.77;;;21.10;51.50;;;;;;5061866;28;20518;-69
2022/08/11 04:19:25;;;;;;;5.23;4.73;;;21.00;51.50;;;;;;5075670;28;20948;-69
2022/08/11 04:21:59;;;;;;;5.20;4.80;;;21.00;51.60;;;;;;5065562;28;21018;-69
2022/08/11 04:24:55;;;;;;;4.93;4.43;;;21.00;51.80;;;;;;5063689;28;20523;-69
2022/08/11 04:27:31;;;;;;;5.30;4.80;;;20.90;51.80;;;;;;5057126;28;20478;-69
2022/08/11 04:30:08;;;;;;;7.13;5.03;;;20.90;51.80;;;;;;5073407;28;20441;-69
2022/08/11 04:32:57;;;;;;;5.53;4.60;;;20.90;51.70;;;;;;5066702;28;20450;-69
2022/08/11 04:35:50;;;;;;;5.23;4.83;;;20.90;51.80;;;;;;5060934;28;20449;-69
2022/08/11 04:38:22;;;;;;;4.73;4.40;;;20.90;51.80;;;;;;5064073;28;20484;-69
2022/08/11 04:41:13;;;;;;;5.37;4.57;;;20.90;51.70;;;;;;5071400;28;20449;-68
2022/08/11 04:44:26;;;;;;;4.93;4.53;;;20.90;51.70;;;;;;5074357;28;20466;-68
2022/08/11 05:01:39;;;;;;;5.30;4.90;;;20.90;51.80;;;;;;5041238;28;20467;-69
2022/08/11 05:02:49;;;;;;;5.00;4.70;;;20.80;52.00;;;;;;5067794;28;20477;-69
2022/08/11 05:05:34;;;;;;;5.60;5.17;;;20.80;51.90;;;;;;5038162;28;20481;-68
2022/08/11 05:08:23;;;;;;;5.00;4.60;;;20.80;51.80;;;;;;5069936;28;20446;-69
2022/08/11 05:11:03;;;;;;;5.47;5.03;;;20.80;52.30;;;;;;5063953;28;20484;-68
2022/08/11 05:36:47;;;;;;;5.60;5.20;;;20.80;52.60;;;;;;5070629;28;20445;-69
2022/08/11 05:56:53;;;;;;;7.83;4.97;;;20.90;52.40;;;;;;5059334;28;20472;-68
2022/08/11 05:59:20;;;;;;;5.20;4.80;;;20.90;52.80;;;;;;5069119;28;20488;-68
2022/08/11 06:01:46;;;;;;;4.93;4.53;;;20.90;52.60;;;;;;5085968;28;20452;-68
2022/08/11 06:04:21;;;;;;;5.37;4.97;;;21.00;52.50;;;;;;5069872;28;20466;-69
2022/08/11 06:06:51;;;;;;;5.83;5.40;;;21.00;52.60;;;;;;5078842;28;20459;-69
2022/08/11 06:09:32;;;;;;;5.23;4.73;;;21.00;53.00;;;;;;5069430;28;20476;-69
2022/08/11 06:12:28;;;;;;;5.23;4.70;;;21.10;53.10;;;;;;5064061;28;20449;-69
2022/08/11 06:14:56;;;;;;;4.93;4.53;;;21.10;52.80;;;;;;5063399;28;20449;-70
2022/08/11 06:17:29;;;;;;;5.53;5.13;;;21.20;52.90;;;;;;5053530;28;20453;-69
2022/08/11 06:20:05;;;;;;;5.40;5.00;;;21.20;52.80;;;;;;5075026;28;20457;-69
2022/08/11 06:22:32;;;;;;;5.00;4.60;;;21.20;52.80;;;;;;5085823;28;20595;-69
2022/08/11 06:25:00;;;;;;;5.13;4.73;;;21.30;53.00;;;;;;5068983;28;20469;-70
2022/08/11 06:27:29;;;;;;;6.10;5.20;;;21.40;53.60;;;;;;5081025;28;20458;-69
2022/08/11 06:29:55;;;;;;;4.90;4.50;;;21.40;53.50;;;;;;5068158;28;20460;-70
2022/08/11 06:32:43;;;;;;;4.53;4.23;;;21.50;53.60;;;;;;5067889;28;20492;-69
2022/08/11 06:35:17;;;;;;;5.97;4.83;;;21.60;53.70;;;;;;5049236;28;20461;-69
2022/08/11 06:38:01;;;;;;;7.37;4.80;;;21.70;53.70;;;;;;5064975;27;20782;-69
2022/08/11 06:43:53;;;;;;;8.53;4.63;;;22.00;53.60;;;;;;5052601;28;20824;-70
2022/08/11 06:46:54;;;;;;;6.63;4.87;;;22.10;53.70;;;;;;5070942;28;20498;-69
2022/08/11 06:52:16;;;;;;;4.33;4.03;;;22.30;53.50;;;;;;5079178;28;20456;-69
2022/08/11 06:55:03;;;;;;;4.00;3.70;;;22.40;53.40;;;;;;5050981;28;20969;-69
2022/08/11 07:00:29;;;;;;;5.83;5.33;;;22.50;53.20;;;;;;5071432;28;20457;-69
2022/08/11 07:03:07;;;;;;;4.37;4.00;;;22.60;53.10;;;;;;5066058;28;20461;-69
2022/08/11 07:05:43;;;;;;;6.17;4.37;;;22.70;53.20;;;;;;5076340;28;20483;-68
2022/08/11 07:17:00;;;;;;;8.33;4.17;;;23.10;53.00;;;;;;5036313;28;21016;-68
2022/08/11 07:30:48;;;;;;;4.90;4.50;;;23.50;52.80;;;;;;5063715;27;20445;-69
2022/08/11 07:33:25;;;;;;;4.73;4.43;;;23.60;52.80;;;;;;5063854;28;20947;-69
2022/08/11 07:35:54;;;;;;;10.43;4.90;;;23.70;53.20;;;;;;5061886;28;20963;-69
2022/08/11 07:38:43;;;;;;;5.57;4.27;;;23.70;52.70;;;;;;5064831;28;20445;-69
2022/08/11 07:41:17;;;;;;;5.03;4.53;;;23.90;53.30;;;;;;5051598;28;20450;-69
2022/08/11 07:43:47;;;;;;;5.97;4.03;;;23.90;52.80;;;;;;5050257;28;20982;-69
2022/08/11 07:54:31;;;;;;;4.57;4.10;;;24.20;52.80;;;;;;5064664;28;20461;-70
2022/08/11 07:56:57;;;;;;;4.73;4.43;;;24.30;52.70;;;;;;5063979;28;20818;-69
2022/08/11 08:18:45;;;;;;;5.17;4.17;;;25.00;52.50;;;;;;5080790;28;20944;-69
2022/08/11 08:21:13;;;;;;;5.33;4.83;;;25.10;52.30;;;;;;5091615;28;20468;-69
2022/08/11 08:23:42;;;;;;;4.50;4.10;;;25.20;52.30;;;;;;5070400;28;20486;-69
2022/08/11 08:31:47;;;;;;;4.37;4.00;;;25.40;52.30;;;;;;5070243;28;20450;-67
2022/08/11 08:34:14;;;;;;;3.83;3.60;;;25.50;52.20;;;;;;5068858;28;20495;-68
2022/08/11 08:36:49;;;;;;;6.10;3.80;;;25.60;52.20;;;;;;5070857;28;20538;-69
2022/08/11 08:39:20;;;;;;;7.10;4.90;;;25.70;52.00;;;;;;5071532;28;20506;-69
2022/08/11 08:41:51;;;;;;;5.20;4.30;;;25.70;51.90;;;;;;5084133;28;20434;-69
2022/08/11 08:44:19;;;;;;;5.17;4.70;;;25.80;52.10;;;;;;5072687;28;20553;-69
2022/08/11 08:46:49;;;;;;;5.13;4.63;;;25.90;51.80;;;;;;5070740;28;20498;-70
2022/08/11 08:49:18;;;;;;;5.40;4.30;;;25.90;51.70;;;;;;5071139;28;20465;-70
2022/08/11 08:51:51;;;;;;;4.40;4.10;;;26.00;51.70;;;;;;5072834;27;20490;-69
2022/08/11 08:54:19;;;;;;;4.57;4.27;;;26.00;51.50;;;;;;5073340;28;20456;-69
2022/08/11 08:56:51;;;;;;;4.73;4.30;;;26.10;51.60;;;;;;5071225;28;20438;-69
2022/08/11 08:59:21;;;;;;;4.63;4.23;;;26.20;51.60;;;;;;5070475;28;21154;-69
2022/08/11 09:02:11;;;;;;;4.77;4.37;;;26.30;51.50;;;;;;5063325;28;20439;-68
2022/08/11 09:04:39;;;;;;;4.87;4.50;;;26.50;51.50;;;;;;5072459;28;20464;-70
2022/08/11 09:07:17;;;;;;;4.57;4.17;;;26.50;51.20;;;;;;5085074;28;20454;-69
2022/08/11 09:09:46;;;;;;;5.67;4.37;;;26.50;51.30;;;;;;5060562;28;20455;-70
2022/08/11 09:12:13;;;;;;;4.40;3.93;;;26.70;51.30;;;;;;5068870;27;20474;-70
2022/08/11 09:14:59;;;;;;;4.50;4.20;;;26.70;51.30;;;;;;5060307;28;20453;-70
2022/08/11 09:17:45;;;;;;;4.73;4.37;;;26.80;51.30;;;;;;5087559;28;20921;-70
2022/08/11 09:20:17;;;;;;;4.37;4.07;;;26.90;51.10;;;;;;5052918;28;20908;-70
2022/08/11 09:28:19;;;;;;;5.00;4.17;;;27.20;50.80;;;;;;5060719;28;20230;-70
2022/08/11 09:30:53;;;;;;;4.50;4.20;;;27.20;50.80;;;;;;5087446;28;20584;-70
2022/08/11 09:33:20;;;;;;;5.17;4.67;;;27.20;50.70;;;;;;5060802;28;20239;-69
2022/08/11 09:35:48;;;;;;;4.80;4.40;;;27.30;50.80;;;;;;5072972;28;20224;-69
2022/08/11 09:41:04;;;;;;;4.23;3.93;;;27.50;50.70;;;;;;5071847;28;20234;-69
2022/08/11 09:46:20;;;;;;;4.00;3.70;;;27.30;50.70;;;;;;5087106;28;20233;-70
2022/08/11 09:48:46;;;;;;;4.33;4.03;;;27.30;50.60;;;;;;5071748;28;20442;-70
2022/08/11 09:51:14;;;;;;;5.40;4.13;;;27.50;50.80;;;;;;5069919;28;20489;-70
2022/08/11 09:53:42;;;;;;;4.03;3.80;;;27.60;50.70;;;;;;5067836;28;20990;-70
2022/08/11 09:59:12;;;;;;;5.60;4.10;;;28.00;50.50;;;;;;5059467;28;20462;-69
2022/08/11 10:01:47;;;;;;;5.13;4.65;;;28.10;50.30;;;;;;5049604;28;20229;-70
2022/08/11 10:04:36;;;;;;;4.00;3.67;;;28.00;50.30;;;;;;5066504;28;20242;-69
2022/08/11 10:07:05;;;;;;;4.32;3.60;;;28.20;50.20;;;;;;5045291;28;20687;-67
2022/08/11 10:10:00;;;;;;;5.65;3.97;;;28.50;49.80;;;;;;5069374;28;20257;-68
2022/08/11 10:12:36;;;;;;;6.38;4.00;;;28.40;49.60;;;;;;5068106;28;20245;-67
2022/08/11 10:20:43;;;;;;;3.83;3.63;;;28.60;49.20;;;;;;5074113;28;20227;-69
2022/08/11 10:29:02;;;;;;;4.45;3.80;;;28.80;48.30;;;;;;5067345;28;20223;-68
2022/08/11 10:34:15;;;;;;;4.30;3.90;;;28.80;48.30;;;;;;5080271;28;20266;-69
2022/08/11 10:36:47;;;;;;;4.45;4.05;;;28.90;48.30;;;;;;5056151;28;20249;-70
2022/08/11 10:39:20;;;;;;;4.18;3.88;;;28.90;48.20;;;;;;5068674;28;20279;-69
2022/08/11 10:44:42;;;;;;;4.55;4.20;;;29.00;48.00;;;;;;5069495;28;20595;-68
2022/08/11 11:00:59;;;;;;;3.95;3.65;;;29.50;47.50;;;;;;5061231;28;20232;-68
2022/08/11 11:03:28;;;;;;;3.88;3.60;;;29.50;47.60;;;;;;5069179;28;20287;-67
2022/08/11 11:06:02;;;;;;;6.00;3.97;;;29.60;47.30;;;;;;5086242;28;20223;-68
2022/08/11 11:11:18;;;;;;;5.72;5.22;;;29.60;47.10;;;;;;5071089;28;20242;-68
2022/08/11 11:19:18;;;;;;;4.50;4.10;;;29.90;47.10;;;;;;5081671;27;20224;-71
2022/08/11 11:21:48;;;;;;;3.80;3.50;;;30.00;46.80;;;;;;5088147;28;20231;-67
2022/08/11 11:24:40;;;;;;;3.60;3.40;;;30.10;46.80;;;;;;5076457;28;20324;-68
2022/08/11 11:27:34;;;;;;;6.82;6.30;;;30.10;46.30;;;;;;5070416;28;20216;-68
2022/08/11 11:30:07;;;;;;;4.30;4.00;;;30.40;46.10;;;;;;5057624;28;20222;-67
2022/08/11 11:32:36;;;;;;;3.92;3.72;;;30.40;46.10;;;;;;5070691;27;20240;-67
2022/08/11 11:35:25;;;;;;;4.32;3.92;;;30.30;46.30;;;;;;5043200;28;20230;-67
2022/08/11 11:37:52;;;;;;;4.88;4.50;;;30.30;46.40;;;;;;5067377;28;20222;-70
2022/08/11 11:40:21;;;;;;;4.70;4.40;;;30.30;46.40;;;;;;5075368;28;20227;-70
2022/08/11 11:42:49;;;;;;;4.60;4.30;;;30.20;46.40;;;;;;5067588;28;20236;-68
2022/08/11 11:45:18;;;;;;;4.45;4.15;;;30.10;46.40;;;;;;5068914;28;20241;-66
2022/08/11 11:47:45;;;;;;;4.93;4.53;;;30.10;46.60;;;;;;5062766;28;20560;-68
2022/08/11 11:50:12;;;;;;;4.68;4.30;;;30.10;46.60;;;;;;5069437;28;20215;-67
2022/08/11 11:52:42;;;;;;;4.15;3.85;;;30.10;46.60;;;;;;5063834;28;20236;-68
2022/08/11 11:55:08;;;;;;;4.85;4.45;;;30.30;46.80;;;;;;5059572;28;20219;-69
2022/08/11 12:03:08;;;;;;;4.55;4.15;;;30.70;46.40;;;;;;5068364;28;20237;-68
2022/08/11 12:05:36;;;;;;;4.60;4.20;;;30.80;46.60;;;;;;5062050;28;20384;-69
2022/08/11 12:08:10;;;;;;;4.85;4.55;;;30.80;46.00;;;;;;5052734;28;20689;-68
2022/08/11 12:10:38;;;;;;;4.57;4.18;;;30.80;46.10;;;;;;5063435;28;20222;-68
2022/08/11 12:15:51;;;;;;;4.68;4.28;;;30.90;45.80;;;;;;5070271;28;20232;-68
2022/08/11 12:18:17;;;;;;;4.50;4.10;;;30.70;45.60;;;;;;5073301;28;20224;-68
2022/08/11 12:20:44;;;;;;;4.80;4.40;;;30.60;45.50;;;;;;5065648;28;20286;-68
2022/08/11 12:28:43;;;;;;;4.72;4.30;;;30.80;45.90;;;;;;5062943;28;20265;-68
2022/08/11 12:31:10;;;;;;;4.35;4.05;;;30.80;45.60;;;;;;5066395;28;20280;-69
2022/08/11 12:33:40;;;;;;;4.60;4.30;;;30.90;45.20;;;;;;5064505;28;20318;-68
2022/08/11 12:36:08;;;;;;;4.75;4.35;;;31.00;44.90;;;;;;5048507;28;20230;-67
2022/08/11 12:38:35;;;;;;;4.68;4.38;;;30.90;45.10;;;;;;5058039;28;20225;-67
2022/08/11 12:46:36;;;;;;;5.63;4.95;;;30.50;45.30;;;;;;5074398;28;20316;-67
2022/08/11 12:52:03;;;;;;;4.97;4.50;;;30.80;45.60;;;;;;5062134;28;20343;-67
2022/08/11 12:54:56;;;;;;;4.57;4.28;;;30.90;45.50;;;;;;5059756;28;20282;-68
2022/08/11 13:05:37;;;;;;;4.70;4.40;;;31.40;45.50;;;;;;5060493;28;20274;-68
2022/08/11 13:08:05;;;;;;;5.47;5.10;;;31.60;44.60;;;;;;5068287;28;20812;-68
2022/08/11 13:13:21;;;;;;;4.78;4.47;;;31.40;44.40;;;;;;5074883;28;20234;-68
2022/08/11 13:15:48;;;;;;;5.18;4.78;;;31.10;44.30;;;;;;5068233;28;20765;-68
2022/08/11 13:18:21;;;;;;;5.60;5.20;;;31.00;44.00;;;;;;5071424;28;20244;-68
2022/08/11 13:20:52;;;;;;;5.38;4.97;;;31.00;44.00;;;;;;5070414;28;20257;-68
2022/08/11 13:23:18;;;;;;;5.45;5.05;;;31.10;44.10;;;;;;5069972;28;20720;-68
2022/08/11 13:25:44;;;;;;;5.25;4.85;;;31.20;44.60;;;;;;5089281;28;20596;-68
2022/08/11 13:28:11;;;;;;;4.68;4.38;;;31.50;44.70;;;;;;5055935;28;20226;-69
2022/08/11 13:33:24;;;;;;;4.88;4.57;;;31.50;44.30;;;;;;5060868;28;20223;-68
2022/08/11 13:35:54;;;;;;;5.15;4.75;;;31.60;44.70;;;;;;5049757;28;20219;-68
2022/08/11 13:38:23;;;;;;;5.68;5.18;;;31.60;44.40;;;;;;5059773;28;20211;-68
2022/08/11 13:40:50;;;;;;;5.47;4.97;;;31.70;44.50;;;;;;5050833;28;20303;-68
2022/08/11 13:43:18;;;;;;;5.32;4.93;;;31.50;44.20;;;;;;5072412;28;20230;-68
2022/08/11 13:45:46;;;;;;;5.30;4.90;;;31.40;44.40;;;;;;5067412;28;20229;-68
2022/08/11 13:48:14;;;;;;;5.70;5.30;;;31.40;44.30;;;;;;5061323;28;20588;-68
2022/08/11 13:53:29;;;;;;;7.50;5.25;;;31.10;44.40;;;;;;5075247;28;20264;-68
2022/08/11 13:55:58;;;;;;;6.10;4.85;;;31.10;44.30;;;;;;5044789;28;20219;-68
2022/08/11 13:58:26;;;;;;;5.22;4.82;;;31.10;44.30;;;;;;5070455;28;20216;-69
2022/08/11 14:00:53;;;;;;;5.25;4.85;;;31.10;44.60;;;;;;5070141;28;20268;-68
2022/08/11 14:03:25;;;;;;;5.07;4.72;;;31.20;44.50;;;;;;5082842;27;20219;-68
2022/08/11 14:05:55;;;;;;;5.15;4.85;;;31.40;44.30;;;;;;5065251;28;20211;-68
2022/08/11 14:08:31;;;;;;;5.68;5.28;;;31.10;44.00;;;;;;5085511;27;20214;-68
2022/08/11 14:13:47;;;;;;;6.47;4.80;;;31.00;44.00;;;;;;5079398;27;20623;-68
2022/08/11 14:16:30;;;;;;;5.57;5.18;;;31.00;44.00;;;;;;5074920;28;20317;-68
2022/08/11 14:19:03;;;;;;;5.97;5.57;;;31.00;44.30;;;;;;5070827;28;20229;-68
2022/08/11 14:24:20;;;;;;;5.45;4.95;;;31.20;44.10;;;;;;5054351;28;20606;-68
2022/08/11 14:26:48;;;;;;;5.50;5.10;;;31.30;44.40;;;;;;5059204;28;20218;-69
2022/08/11 14:29:19;;;;;;;5.78;5.05;;;31.50;44.30;;;;;;5068459;28;20239;-68
2022/08/11 14:31:52;;;;;;;5.38;5.00;;;31.30;43.70;;;;;;5054197;28;20231;-68
2022/08/11 14:34:20;;;;;;;5.40;4.68;;;31.20;43.90;;;;;;5060507;28;20712;-68
2022/08/11 14:37:02;;;;;;;5.70;5.20;;;31.20;43.80;;;;;;5060977;28;20232;-69
2022/08/11 14:39:46;;;;;;;5.00;4.60;;;31.00;43.60;;;;;;5059957;28;20724;-69
2022/08/11 14:48:09;;;;;;;5.68;5.38;;;31.40;44.10;;;;;;5060099;28;20215;-68
2022/08/11 14:50:36;;;;;;;4.82;4.38;;;31.50;43.20;;;;;;5057735;28;20214;-68
2022/08/11 14:53:08;;;;;;;5.93;4.82;;;31.50;42.90;;;;;;5063911;28;20305;-67
2022/08/11 14:58:27;;;;;;;5.20;4.90;;;31.70;43.10;;;;;;5056662;28;20227;-69
2022/08/11 15:00:57;;;;;;;4.88;4.53;;;31.80;42.80;;;;;;5063097;28;20262;-68
2022/08/11 15:03:24;;;;;;;4.97;4.68;;;31.60;42.90;;;;;;5064635;28;20226;-68
2022/08/11 15:06:01;;;;;;;5.93;5.53;;;31.60;43.20;;;;;;5059192;28;20219;-68
2022/08/11 15:14:06;;;;;;;5.35;5.05;;;31.50;43.20;;;;;;5055878;28;20215;-68
2022/08/11 15:19:19;;;;;;;5.10;4.80;;;31.60;43.60;;;;;;5065318;28;20322;-68
2022/08/11 15:24:32;;;;;;;5.57;5.28;;;31.70;43.50;;;;;;5081500;28;20226;-68
2022/08/11 15:38:03;;;;;;;7.55;5.18;;;32.10;43.20;;;;;;5072637;28;20214;-68
2022/08/11 15:46:32;;;;;;;4.97;4.68;;;31.80;43.10;;;;;;5057177;28;20630;-69
2022/08/11 15:49:16;;;;;;;4.65;4.28;;;31.90;42.20;;;;;;5053700;28;20580;-69
2022/08/11 15:51:47;;;;;;;5.15;4.75;;;31.90;42.20;;;;;;5064257;28;20215;-68
2022/08/11 15:54:19;;;;;;;4.32;4.03;;;32.00;42.20;;;;;;5056234;28;20234;-69
2022/08/11 15:56:48;;;;;;;4.38;4.18;;;31.90;41.90;;;;;;5062635;28;20242;-69
2022/08/11 16:04:44;;;;;;;5.00;4.60;;;31.50;42.10;;;;;;5065028;28;20280;-69
2022/08/11 16:07:11;;;;;;;4.50;4.20;;;31.50;42.00;;;;;;5067226;28;20866;-69
2022/08/11 16:09:51;;;;;;;4.88;4.57;;;31.50;42.30;;;;;;5050014;28;20230;-69
2022/08/11 16:12:25;;;;;;;5.18;4.55;;;31.50;42.00;;;;;;5075224;28;20584;-69
2022/08/11 16:17:43;;;;;;;4.00;3.80;;;31.60;41.30;;;;;;5064135;28;20691;-69
2022/08/11 16:20:15;;;;;;;4.50;4.20;;;31.70;41.20;;;;;;5062771;28;20227;-67
2022/08/11 16:22:43;;;;;;;4.10;3.88;;;31.60;41.30;;;;;;5068354;28;20222;-68
2022/08/11 16:25:11;;;;;;;4.32;4.07;;;31.60;41.60;;;;;;5070649;28;20222;-69
2022/08/11 16:27:43;;;;;;;4.85;4.47;;;31.60;41.70;;;;;;5054421;28;20234;-68
2022/08/11 16:30:10;;;;;;;4.60;4.30;;;31.60;41.50;;;;;;5069131;28;20223;-68
2022/08/11 16:32:39;;;;;;;4.15;3.75;;;31.60;42.10;;;;;;5066938;28;20595;-70
2022/08/11 16:40:43;;;;;;;5.00;4.60;;;31.60;41.60;;;;;;5087541;28;20651;-69
2022/08/11 16:48:48;;;;;;;4.45;4.05;;;31.40;41.80;;;;;;5052586;28;20215;-69
2022/08/11 16:51:15;;;;;;;5.20;4.70;;;31.50;41.90;;;;;;5062177;28;20219;-68
2022/08/11 16:53:44;;;;;;;4.47;4.18;;;31.50;41.90;;;;;;5060244;28;20222;-69
2022/08/11 16:56:15;;;;;;;4.68;4.32;;;31.60;42.00;;;;;;5076095;28;20219;-69
2022/08/11 17:01:28;;;;;;;4.13;3.92;;;31.50;41.70;;;;;;5067098;28;20301;-69
2022/08/11 17:16:05;;;;;;;5.15;4.03;;;31.30;41.80;;;;;;5067659;28;20611;-68
2022/08/11 17:18:01;;;;;;;4.65;4.20;;;31.30;41.90;;;;;;5075083;27;20218;-69
2022/08/11 17:20:28;;;;;;;4.55;4.25;;;31.30;42.00;;;;;;5070547;28;20702;-69
2022/08/11 17:25:40;;;;;;;4.63;4.28;;;31.20;41.90;;;;;;5055391;28;20228;-69
2022/08/11 17:28:07;;;;;;;5.10;4.35;;;31.20;42.20;;;;;;5068167;28;20233;-69
2022/08/11 17:36:04;;;;;;;4.07;3.67;;;31.20;42.20;;;;;;5065752;28;20218;-69
2022/08/11 17:38:32;;;;;;;4.47;4.18;;;31.30;42.30;;;;;;5076645;28;20639;-69
2022/08/11 17:49:19;;;;;;;4.22;3.78;;;31.10;42.30;;;;;;5084854;28;20630;-68
2022/08/11 18:00:06;;;;;;;4.30;4.00;;;31.00;42.60;;;;;;5073781;27;20297;-69
2022/08/11 18:05:30;;;;;;;4.05;3.75;;;31.00;42.70;;;;;;5070892;28;20705;-69
